Time;durP1;ratioP1;P1;durP2;ratioP2;P2;SDS_P1;SDS_P2;PMS_P1;PMS_P2;Temp;Humidity;BMP_temperature;BMP_pressure;BME280_temperature;BME280_humidity;BME280_pressure;Samples;Min_cycle;Max_cycle;Signal;HPM_P1;HPM_P2
2022/08/27 00:00:07;;;;;;;15.67;13.30;;;19.70;99.90;;;;;;5067893;28;20170;-66
2022/08/27 00:02:34;;;;;;;14.00;12.70;;;19.70;99.90;;;;;;5062545;28;20217;-67
2022/08/27 00:05:01;;;;;;;16.90;12.97;;;19.70;99.90;;;;;;5067699;28;20188;-66
2022/08/27 00:07:27;;;;;;;16.00;13.30;;;19.80;99.90;;;;;;5065280;28;20761;-68
2022/08/27 00:09:52;;;;;;;15.10;12.97;;;19.80;99.90;;;;;;5067844;28;20710;-68
2022/08/27 00:12:18;;;;;;;16.33;14.00;;;19.80;99.90;;;;;;5065716;28;20274;-67
2022/08/27 00:14:44;;;;;;;13.57;12.30;;;19.70;99.90;;;;;;5067236;28;20177;-65
2022/08/27 00:17:10;;;;;;;15.67;13.57;;;19.70;99.90;;;;;;5062664;28;20225;-66
2022/08/27 00:19:36;;;;;;;14.37;13.10;;;19.80;99.90;;;;;;5067755;28;20233;-66
2022/08/27 00:22:02;;;;;;;13.73;12.53;;;19.80;99.90;;;;;;5063531;28;20214;-64
2022/08/27 00:24:28;;;;;;;15.97;13.47;;;19.80;99.90;;;;;;5067371;28;20593;-64
2022/08/27 00:26:53;;;;;;;14.37;12.97;;;19.80;99.90;;;;;;5064622;28;20177;-67
2022/08/27 00:29:19;;;;;;;15.50;13.93;;;19.80;99.90;;;;;;5067120;28;20195;-69
2022/08/27 00:31:45;;;;;;;16.37;13.30;;;19.70;99.90;;;;;;5067057;28;21026;-69
2022/08/27 00:34:10;;;;;;;14.80;13.23;;;19.70;99.90;;;;;;5065272;28;20201;-66
2022/08/27 00:36:36;;;;;;;18.13;14.13;;;19.60;99.90;;;;;;5067141;28;20188;-66
2022/08/27 00:39:03;;;;;;;15.63;14.03;;;19.60;99.90;;;;;;5063857;28;20561;-65
2022/08/27 00:41:28;;;;;;;14.47;13.03;;;19.50;99.90;;;;;;5066980;28;20193;-64
2022/08/27 00:43:59;;;;;;;15.03;13.63;;;19.50;99.90;;;;;;5064951;28;20191;-65
2022/08/27 00:46:40;;;;;;;18.00;15.23;;;19.40;99.90;;;;;;5064065;28;20181;-68
2022/08/27 00:49:11;;;;;;;20.20;15.33;;;19.40;99.90;;;;;;5062426;28;20217;-66
2022/08/27 00:51:37;;;;;;;17.33;15.43;;;19.40;99.90;;;;;;5065071;28;20199;-66
2022/08/27 00:54:04;;;;;;;16.77;15.07;;;19.40;99.90;;;;;;5064328;28;20282;-67
2022/08/27 00:56:36;;;;;;;15.93;14.60;;;19.50;99.90;;;;;;5063789;28;20212;-69
2022/08/27 00:59:02;;;;;;;17.00;15.30;;;19.50;99.90;;;;;;5063146;28;20251;-68
2022/08/27 01:01:30;;;;;;;16.93;15.17;;;19.60;99.90;;;;;;5066728;28;20210;-68
2022/08/27 01:03:59;;;;;;;17.10;15.40;;;19.60;99.90;;;;;;5064418;28;20192;-67
2022/08/27 01:06:30;;;;;;;16.67;14.97;;;19.60;99.90;;;;;;5063474;28;20178;-67
2022/08/27 01:09:03;;;;;;;16.07;14.57;;;19.60;99.90;;;;;;5061409;28;20287;-70
2022/08/27 01:11:30;;;;;;;17.17;15.40;;;19.60;99.90;;;;;;5056056;28;20192;-77
2022/08/27 01:13:55;;;;;;;17.90;16.10;;;19.70;99.90;;;;;;5059094;28;20273;-64
2022/08/27 01:16:26;;;;;;;16.17;14.43;;;19.70;99.90;;;;;;5066144;28;20758;-64
2022/08/27 01:18:53;;;;;;;18.70;15.63;;;19.60;99.90;;;;;;5059940;28;20211;-64
2022/08/27 01:21:23;;;;;;;17.37;15.50;;;19.60;99.90;;;;;;5066640;28;20215;-66
2022/08/27 01:24:07;;;;;;;16.83;14.93;;;19.60;99.90;;;;;;5065104;28;20199;-66
2022/08/27 01:26:33;;;;;;;16.10;14.67;;;19.60;99.90;;;;;;5047609;28;20183;-66
2022/08/27 01:28:59;;;;;;;15.83;14.23;;;19.70;99.90;;;;;;5064983;28;20304;-64
2022/08/27 01:31:25;;;;;;;16.37;14.73;;;19.70;99.90;;;;;;5047844;28;20276;-67
2022/08/27 01:34:03;;;;;;;18.20;15.20;;;19.70;99.90;;;;;;5050526;28;20291;-64
2022/08/27 01:36:29;;;;;;;16.33;14.70;;;19.80;99.90;;;;;;5067274;28;20190;-62
2022/08/27 01:38:55;;;;;;;18.47;16.27;;;19.70;99.90;;;;;;5060543;28;20707;-63
2022/08/27 01:41:21;;;;;;;20.00;16.37;;;19.70;99.90;;;;;;5066792;28;20279;-64
2022/08/27 01:43:47;;;;;;;17.83;15.97;;;19.70;99.90;;;;;;5059341;28;20276;-64
2022/08/27 01:46:13;;;;;;;16.93;15.27;;;19.70;99.90;;;;;;5067102;28;20178;-64
2022/08/27 01:48:38;;;;;;;15.93;14.33;;;19.70;99.90;;;;;;5057950;28;20753;-65
2022/08/27 01:51:04;;;;;;;19.30;16.73;;;19.70;99.90;;;;;;5066898;28;20674;-64
2022/08/27 01:53:29;;;;;;;19.00;17.00;;;19.70;99.90;;;;;;5056882;28;20210;-65
2022/08/27 01:55:55;;;;;;;23.30;17.97;;;19.70;99.90;;;;;;5066830;28;20664;-64
2022/08/27 01:58:24;;;;;;;18.67;16.17;;;19.70;99.90;;;;;;5045449;28;20210;-66
2022/08/27 02:00:52;;;;;;;18.83;16.83;;;19.70;99.90;;;;;;5066569;28;20216;-63
2022/08/27 02:03:17;;;;;;;20.87;18.33;;;19.80;99.90;;;;;;5045153;28;20928;-63
2022/08/27 02:05:44;;;;;;;24.33;17.57;;;19.80;99.90;;;;;;5066133;28;20189;-63
2022/08/27 02:08:10;;;;;;;23.17;16.60;;;19.70;99.90;;;;;;5045620;28;20197;-63
2022/08/27 02:10:38;;;;;;;22.57;18.73;;;19.70;99.90;;;;;;5070144;28;20203;-62
2022/08/27 02:13:05;;;;;;;26.37;19.17;;;19.70;99.90;;;;;;5048787;28;20196;-62
2022/08/27 02:15:33;;;;;;;19.83;17.67;;;19.80;99.90;;;;;;5050512;28;20616;-62
2022/08/27 02:17:58;;;;;;;22.33;19.50;;;19.80;99.90;;;;;;5067974;28;20209;-61
2022/08/27 02:20:25;;;;;;;20.80;18.50;;;19.90;99.90;;;;;;5070663;28;20179;-61
2022/08/27 02:22:51;;;;;;;23.03;17.00;;;19.80;99.90;;;;;;5068415;28;20610;-61
2022/08/27 02:25:19;;;;;;;24.33;20.10;;;19.80;99.90;;;;;;5070659;28;20201;-61
2022/08/27 02:27:45;;;;;;;22.50;19.40;;;19.70;99.90;;;;;;5061088;28;20678;-61
2022/08/27 02:30:14;;;;;;;25.87;22.77;;;19.70;99.90;;;;;;5070660;28;20196;-62
2022/08/27 02:32:39;;;;;;;26.40;22.50;;;19.70;99.90;;;;;;5048762;28;20607;-62
2022/08/27 02:35:07;;;;;;;32.70;23.47;;;19.70;99.90;;;;;;5050720;28;20176;-62
2022/08/27 02:37:33;;;;;;;28.33;22.87;;;19.80;99.90;;;;;;5068356;28;20216;-62
2022/08/27 02:40:00;;;;;;;25.73;22.17;;;19.70;99.90;;;;;;5070900;28;20184;-63
2022/08/27 02:42:25;;;;;;;24.47;21.47;;;19.80;99.90;;;;;;5068437;28;20536;-62
2022/08/27 02:44:53;;;;;;;30.20;24.07;;;19.80;99.90;;;;;;5070558;28;20183;-64
2022/08/27 02:47:18;;;;;;;31.87;24.50;;;19.70;99.90;;;;;;5070464;28;20774;-66
2022/08/27 02:49:44;;;;;;;31.10;25.13;;;19.70;99.90;;;;;;5068193;28;20225;-65
2022/08/27 02:52:10;;;;;;;35.67;26.60;;;19.60;99.90;;;;;;5051019;28;20279;-64
2022/08/27 02:54:35;;;;;;;34.33;26.43;;;19.60;99.90;;;;;;5049459;28;20201;-64
2022/08/27 02:57:01;;;;;;;34.83;28.13;;;19.60;99.90;;;;;;5069323;28;20195;-64
2022/08/27 02:59:26;;;;;;;38.30;28.67;;;19.50;99.90;;;;;;5066327;28;20667;-64
2022/08/27 03:01:52;;;;;;;38.33;29.63;;;19.50;99.90;;;;;;5070111;28;20187;-65
2022/08/27 03:04:18;;;;;;;40.93;29.40;;;19.50;99.90;;;;;;5064749;28;20203;-64
2022/08/27 03:06:45;;;;;;;41.03;29.93;;;19.50;99.90;;;;;;5070161;28;20667;-64
2022/08/27 03:09:11;;;;;;;45.97;30.83;;;19.40;99.90;;;;;;5063528;28;20231;-64
2022/08/27 03:11:36;;;;;;;43.60;29.50;;;19.40;99.90;;;;;;5070254;28;20225;-64
2022/08/27 03:14:02;;;;;;;39.93;31.03;;;19.40;99.90;;;;;;5062188;28;20199;-64
2022/08/27 03:16:28;;;;;;;47.20;32.50;;;19.50;99.90;;;;;;5070164;28;20198;-64
2022/08/27 03:18:53;;;;;;;49.80;33.07;;;19.40;99.90;;;;;;5060896;28;20219;-65
2022/08/27 03:21:25;;;;;;;48.17;33.03;;;19.50;99.90;;;;;;5068818;28;20668;-65
2022/08/27 03:23:51;;;;;;;47.63;32.70;;;19.40;99.90;;;;;;5059951;28;20290;-63
2022/08/27 03:26:18;;;;;;;52.60;32.90;;;19.40;99.90;;;;;;5050410;28;20196;-65
2022/08/27 03:28:44;;;;;;;48.47;33.80;;;19.40;99.90;;;;;;5067209;28;20208;-63
2022/08/27 03:31:16;;;;;;;50.67;35.17;;;19.40;99.90;;;;;;5069649;28;20223;-63
2022/08/27 03:33:42;;;;;;;49.50;31.87;;;19.40;99.90;;;;;;5047995;28;20348;-63
2022/08/27 03:36:08;;;;;;;56.13;34.63;;;19.40;99.90;;;;;;5069195;28;20199;-63
2022/08/27 03:38:34;;;;;;;44.67;31.77;;;19.40;99.90;;;;;;5048534;28;20213;-65
2022/08/27 03:41:01;;;;;;;50.77;34.87;;;19.40;99.90;;;;;;5069037;28;20195;-63
2022/08/27 03:43:28;;;;;;;50.03;31.47;;;19.40;99.90;;;;;;5048484;28;20206;-63
2022/08/27 03:45:53;;;;;;;46.70;33.60;;;19.40;99.90;;;;;;5069199;28;20206;-62
2022/08/27 03:48:20;;;;;;;48.33;31.43;;;19.30;99.90;;;;;;5048250;28;20203;-62
2022/08/27 03:50:47;;;;;;;55.27;34.70;;;19.30;99.90;;;;;;5049542;28;20230;-62
2022/08/27 03:53:14;;;;;;;50.67;32.53;;;19.30;99.90;;;;;;5067132;28;20197;-62
2022/08/27 03:55:41;;;;;;;52.97;32.27;;;19.30;99.90;;;;;;5068015;28;20191;-62
2022/08/27 03:58:07;;;;;;;45.63;30.90;;;19.30;99.90;;;;;;5067394;28;20256;-63
2022/08/27 04:00:33;;;;;;;44.43;29.70;;;19.30;99.90;;;;;;5069398;28;20205;-62
2022/08/27 04:02:58;;;;;;;50.40;32.67;;;19.20;99.90;;;;;;5067074;28;20577;-63
2022/08/27 04:05:24;;;;;;;43.73;30.83;;;19.20;99.90;;;;;;5069124;28;20173;-62
2022/08/27 04:07:49;;;;;;;43.40;31.63;;;19.20;99.90;;;;;;5066899;28;20191;-63
2022/08/27 04:10:16;;;;;;;47.30;29.07;;;19.20;99.90;;;;;;5069051;28;20399;-63
2022/08/27 04:12:42;;;;;;;55.47;31.80;;;19.20;99.90;;;;;;5047659;28;20270;-62
2022/08/27 04:15:09;;;;;;;52.33;32.13;;;19.20;99.90;;;;;;5048869;28;20181;-63
2022/08/27 04:17:34;;;;;;;49.17;32.07;;;19.20;99.90;;;;;;5068111;28;20283;-62
2022/08/27 04:20:00;;;;;;;46.73;31.83;;;19.20;99.90;;;;;;5066788;28;20611;-62
2022/08/27 04:22:26;;;;;;;56.03;33.43;;;19.20;99.90;;;;;;5068587;28;20190;-62
2022/08/27 04:24:53;;;;;;;50.80;33.50;;;19.20;99.90;;;;;;5065540;28;20608;-62
2022/08/27 04:27:19;;;;;;;51.90;33.47;;;19.20;99.90;;;;;;5060103;28;20865;-62
2022/08/27 04:29:45;;;;;;;52.47;34.30;;;19.20;99.90;;;;;;5049063;28;20203;-62
2022/08/27 04:32:11;;;;;;;49.03;33.30;;;19.20;99.90;;;;;;5067376;28;20202;-62
2022/08/27 04:34:36;;;;;;;48.80;32.80;;;19.20;99.90;;;;;;5063173;28;20193;-62
2022/08/27 04:37:02;;;;;;;45.27;30.80;;;19.30;99.90;;;;;;5068113;28;20718;-63
2022/08/27 04:39:28;;;;;;;46.60;30.60;;;19.20;99.90;;;;;;5061579;28;20717;-63
2022/08/27 04:41:56;;;;;;;45.90;30.43;;;19.30;99.90;;;;;;5068169;28;20193;-62
2022/08/27 04:44:24;;;;;;;44.20;30.00;;;19.30;99.90;;;;;;5060241;28;20204;-63
2022/08/27 04:46:58;;;;;;;42.63;30.57;;;19.40;99.90;;;;;;5068175;28;20284;-63
2022/08/27 04:49:25;;;;;;;42.70;30.03;;;19.40;99.90;;;;;;5059723;28;20235;-62
2022/08/27 04:51:50;;;;;;;44.13;30.30;;;19.40;99.90;;;;;;5066971;28;20184;-63
2022/08/27 04:54:16;;;;;;;42.10;27.77;;;19.40;99.90;;;;;;5059257;28;20212;-63
2022/08/27 04:56:41;;;;;;;38.47;26.30;;;19.30;99.90;;;;;;5067866;28;20558;-64
2022/08/27 04:59:08;;;;;;;40.50;28.07;;;19.30;99.90;;;;;;5057756;28;20216;-63
2022/08/27 05:01:35;;;;;;;39.87;27.93;;;19.30;99.90;;;;;;5067980;28;20189;-61
2022/08/27 05:04:01;;;;;;;40.30;27.53;;;19.40;99.90;;;;;;5046488;28;20225;-62
2022/08/27 05:06:27;;;;;;;41.30;28.30;;;19.30;99.90;;;;;;5067306;28;20549;-62
2022/08/27 05:08:53;;;;;;;38.80;26.10;;;19.30;99.90;;;;;;5046752;28;20205;-62
2022/08/27 05:11:21;;;;;;;39.27;26.83;;;19.40;99.90;;;;;;5066981;28;20196;-62
2022/08/27 05:13:47;;;;;;;35.93;25.13;;;19.40;99.90;;;;;;5045221;28;20290;-62
2022/08/27 05:16:17;;;;;;;36.93;27.10;;;19.40;99.90;;;;;;5067271;28;20215;-62
2022/08/27 05:18:43;;;;;;;37.97;27.13;;;19.40;99.90;;;;;;5045816;28;20220;-62
2022/08/27 05:21:14;;;;;;;33.33;25.07;;;19.50;99.90;;;;;;5047773;28;20269;-62
2022/08/27 05:23:40;;;;;;;32.77;23.33;;;19.50;99.90;;;;;;5052614;28;20444;-62
2022/08/27 05:26:06;;;;;;;34.83;25.37;;;19.40;99.90;;;;;;5067722;28;20185;-62
2022/08/27 05:28:32;;;;;;;33.07;24.87;;;19.50;99.90;;;;;;5046123;28;20274;-62
2022/08/27 05:31:04;;;;;;;30.30;24.57;;;19.50;99.90;;;;;;5047800;28;20214;-62
2022/08/27 05:33:31;;;;;;;32.30;24.83;;;19.50;99.90;;;;;;5050859;28;20734;-62
2022/08/27 05:35:57;;;;;;;31.13;24.20;;;19.50;99.90;;;;;;5067917;28;20678;-61
2022/08/27 05:38:25;;;;;;;32.20;24.43;;;19.50;99.90;;;;;;5045940;28;20365;-62
2022/08/27 05:41:06;;;;;;;29.53;23.77;;;19.50;99.90;;;;;;5047623;28;20536;-62
2022/08/27 05:43:32;;;;;;;31.93;24.20;;;19.50;99.90;;;;;;5051443;28;20725;-62
2022/08/27 05:45:57;;;;;;;30.30;23.77;;;19.50;99.90;;;;;;5071945;28;20280;-62
2022/08/27 05:48:23;;;;;;;26.77;21.03;;;19.60;99.90;;;;;;5069591;28;20195;-62
2022/08/27 05:50:48;;;;;;;26.07;21.77;;;19.60;99.90;;;;;;5071709;28;20243;-62
2022/08/27 05:53:14;;;;;;;29.03;21.87;;;19.60;99.90;;;;;;5069336;28;20228;-63
2022/08/27 05:55:43;;;;;;;25.83;20.97;;;19.70;99.90;;;;;;5071594;28;20185;-63
2022/08/27 06:01:03;;;;;;;26.03;20.83;;;19.80;99.90;;;;;;5069150;28;20197;-60
2022/08/27 06:01:04;;;;;;;20.33;18.23;;;19.80;99.90;;;;;;5071610;28;20195;-61
2022/08/27 06:03:33;;;;;;;20.03;17.97;;;19.80;99.90;;;;;;5053878;28;20264;-62
2022/08/27 06:06:03;;;;;;;18.37;16.17;;;19.70;99.90;;;;;;5071462;28;20177;-62
2022/08/27 06:08:28;;;;;;;21.40;17.73;;;19.70;99.90;;;;;;5049815;28;20614;-62
2022/08/27 06:10:55;;;;;;;21.83;17.53;;;19.80;99.90;;;;;;5051317;28;20231;-62
2022/08/27 06:13:21;;;;;;;20.67;18.60;;;19.90;99.90;;;;;;5068327;28;20200;-62
2022/08/27 06:15:47;;;;;;;18.57;16.67;;;19.90;99.90;;;;;;5071242;28;20179;-62
2022/08/27 06:18:12;;;;;;;21.83;18.23;;;19.90;99.90;;;;;;5068828;28;20211;-62
2022/08/27 06:20:38;;;;;;;19.20;16.30;;;19.90;99.90;;;;;;5071289;28;20192;-62
2022/08/27 06:23:04;;;;;;;16.10;13.83;;;20.00;99.90;;;;;;5070566;28;20188;-62
2022/08/27 06:25:31;;;;;;;15.77;14.30;;;20.00;99.90;;;;;;5069233;28;20278;-61
2022/08/27 06:27:57;;;;;;;14.80;13.20;;;20.10;99.90;;;;;;5070698;28;20200;-62
2022/08/27 06:30:23;;;;;;;12.90;11.67;;;20.20;99.90;;;;;;5068216;28;20211;-62
2022/08/27 06:32:50;;;;;;;13.93;12.53;;;20.20;99.90;;;;;;5070679;28;20209;-63
2022/08/27 06:35:17;;;;;;;13.33;12.13;;;20.20;99.90;;;;;;5066923;28;20198;-66
2022/08/27 06:37:43;;;;;;;15.53;11.80;;;20.20;99.90;;;;;;5070408;28;20230;-65
2022/08/27 06:40:09;;;;;;;14.33;12.37;;;20.20;99.90;;;;;;5065041;28;20746;-64
2022/08/27 06:42:35;;;;;;;13.60;11.70;;;20.20;99.90;;;;;;5070660;28;20196;-64
2022/08/27 06:45:01;;;;;;;12.00;10.90;;;20.20;99.90;;;;;;5064407;28;20357;-64
2022/08/27 06:47:30;;;;;;;13.37;10.80;;;20.20;99.90;;;;;;5070704;28;20838;-64
2022/08/27 06:49:56;;;;;;;18.43;10.97;;;20.20;99.90;;;;;;5063515;28;20228;-62
2022/08/27 06:52:22;;;;;;;12.23;10.93;;;20.20;99.90;;;;;;5070108;28;20341;-63
2022/08/27 06:54:47;;;;;;;12.03;10.83;;;20.20;99.90;;;;;;5062449;28;20276;-64
2022/08/27 06:57:13;;;;;;;10.37;9.37;;;20.30;99.90;;;;;;5070243;28;20190;-64
2022/08/27 06:59:38;;;;;;;11.43;10.43;;;20.20;99.90;;;;;;5061089;28;20199;-63
2022/08/27 07:02:04;;;;;;;12.50;10.77;;;20.30;99.90;;;;;;5071558;28;20190;-63
2022/08/27 07:04:29;;;;;;;12.20;10.13;;;20.30;99.90;;;;;;5049282;28;20209;-64
2022/08/27 07:06:55;;;;;;;13.40;10.07;;;20.30;99.90;;;;;;5069702;28;20240;-65
2022/08/27 07:09:22;;;;;;;11.80;10.30;;;20.40;99.90;;;;;;5048928;28;20673;-66
2022/08/27 07:11:47;;;;;;;11.77;10.47;;;20.30;99.90;;;;;;5069664;28;20214;-65
2022/08/27 07:14:13;;;;;;;10.37;9.37;;;20.30;99.90;;;;;;5048846;28;20900;-65
2022/08/27 07:16:39;;;;;;;11.47;9.77;;;20.40;99.90;;;;;;5069362;28;20278;-65
2022/08/27 07:19:05;;;;;;;10.63;9.53;;;20.40;99.90;;;;;;5047493;28;20273;-64
2022/08/27 07:21:32;;;;;;;12.97;11.87;;;20.40;99.90;;;;;;5049746;28;20265;-64
2022/08/27 07:24:03;;;;;;;14.80;11.13;;;20.50;99.90;;;;;;5067504;28;20221;-64
2022/08/27 07:26:30;;;;;;;13.83;10.93;;;20.50;99.90;;;;;;5069682;28;20182;-63
2022/08/27 07:28:55;;;;;;;12.73;10.80;;;20.50;99.90;;;;;;5067731;28;20197;-65
2022/08/27 07:31:22;;;;;;;13.50;11.27;;;20.50;99.90;;;;;;5069513;28;20809;-62
2022/08/27 07:33:48;;;;;;;12.00;10.77;;;20.50;99.90;;;;;;5067334;28;20203;-63
2022/08/27 07:36:14;;;;;;;12.50;11.23;;;20.50;99.90;;;;;;5069609;28;20183;-63
2022/08/27 07:38:40;;;;;;;12.90;10.53;;;20.50;99.90;;;;;;5067260;28;21052;-62
2022/08/27 07:41:10;;;;;;;13.00;11.30;;;20.60;99.90;;;;;;5069625;28;20655;-62
2022/08/27 07:46:22;;;;;;;12.10;10.83;;;20.60;99.90;;;;;;5069548;28;20956;-62
2022/08/27 07:48:48;;;;;;;11.57;10.40;;;20.70;99.90;;;;;;5048060;28;20225;-63
2022/08/27 07:51:16;;;;;;;12.33;11.13;;;20.80;99.90;;;;;;5049339;28;20592;-65
2022/08/27 07:53:43;;;;;;;11.97;10.77;;;20.80;99.90;;;;;;5066817;28;20683;-65
2022/08/27 07:56:09;;;;;;;12.17;10.87;;;20.80;99.90;;;;;;5069362;28;20265;-65
2022/08/27 07:58:34;;;;;;;12.57;11.23;;;20.80;99.90;;;;;;5067078;28;20301;-65
2022/08/27 08:01:01;;;;;;;13.23;10.40;;;20.80;99.90;;;;;;5067517;28;20185;-66
2022/08/27 08:03:26;;;;;;;12.53;11.33;;;20.90;99.90;;;;;;5065184;28;20184;-63
2022/08/27 08:05:53;;;;;;;12.97;10.30;;;20.80;99.90;;;;;;5065782;28;20170;-64
2022/08/27 08:08:19;;;;;;;14.67;12.77;;;20.80;99.90;;;;;;5063931;28;20193;-64
2022/08/27 08:10:47;;;;;;;12.03;10.77;;;20.60;99.90;;;;;;5064833;28;20292;-64
2022/08/27 08:13:13;;;;;;;19.10;12.83;;;20.50;99.90;;;;;;5066031;28;20202;-64
2022/08/27 08:15:38;;;;;;;18.73;12.67;;;20.50;99.90;;;;;;5063643;28;20563;-65
2022/08/27 08:18:04;;;;;;;14.87;12.87;;;20.50;99.90;;;;;;5064114;28;20246;-63
2022/08/27 08:20:30;;;;;;;15.13;13.60;;;20.60;99.90;;;;;;5065780;28;20633;-62
2022/08/27 08:22:55;;;;;;;13.47;12.03;;;20.60;99.90;;;;;;5066164;28;20181;-62
2022/08/27 08:25:21;;;;;;;15.23;12.30;;;20.70;99.90;;;;;;5065163;28;20201;-63
2022/08/27 08:27:47;;;;;;;18.50;13.20;;;20.70;99.90;;;;;;5065695;28;20606;-64
2022/08/27 08:30:13;;;;;;;14.07;12.67;;;20.80;99.90;;;;;;5062987;28;20201;-63
2022/08/27 08:32:38;;;;;;;13.30;12.00;;;20.80;99.90;;;;;;5068180;28;20213;-62
2022/08/27 08:35:06;;;;;;;14.07;11.33;;;20.90;99.90;;;;;;5063263;28;20197;-64
2022/08/27 08:37:31;;;;;;;14.60;11.93;;;20.90;99.90;;;;;;5065809;28;20261;-67
2022/08/27 08:39:57;;;;;;;14.47;12.97;;;21.00;99.90;;;;;;5064820;28;20189;-64
2022/08/27 08:42:50;;;;;;;12.60;11.50;;;21.10;99.90;;;;;;5064567;28;20232;-65
2022/08/27 08:45:23;;;;;;;11.80;10.37;;;21.20;99.90;;;;;;5063775;28;20190;-63
2022/08/27 08:48:08;;;;;;;11.53;10.23;;;21.40;99.90;;;;;;5064963;28;20206;-63
2022/08/27 08:51:00;;;;;;;11.20;10.13;;;21.40;99.90;;;;;;5065873;28;20815;-64
2022/08/27 08:53:51;;;;;;;12.23;10.97;;;21.40;99.90;;;;;;5066241;28;20187;-67
2022/08/27 08:56:27;;;;;;;11.50;10.40;;;21.30;99.90;;;;;;5048464;28;20190;-66
2022/08/27 08:59:02;;;;;;;10.37;9.37;;;21.20;99.90;;;;;;5048752;28;20221;-63
2022/08/27 09:01:28;;;;;;;11.27;10.17;;;21.20;99.90;;;;;;5068151;28;20230;-65
2022/08/27 09:04:01;;;;;;;10.53;9.43;;;21.30;99.90;;;;;;5046862;28;20186;-65
2022/08/27 09:06:44;;;;;;;11.43;9.67;;;21.30;99.90;;;;;;5048008;28;20170;-66
2022/08/27 09:09:30;;;;;;;10.23;9.33;;;21.20;99.90;;;;;;5050562;28;20200;-67
2022/08/27 09:12:23;;;;;;;11.67;8.93;;;21.20;99.90;;;;;;5068182;28;20184;-67
2022/08/27 09:15:16;;;;;;;13.33;9.50;;;21.20;99.90;;;;;;5045916;28;20210;-68
2022/08/27 09:17:42;;;;;;;12.33;9.93;;;21.20;99.90;;;;;;5058176;28;20288;-67
2022/08/27 09:20:10;;;;;;;10.73;9.33;;;21.30;99.90;;;;;;5063597;28;20509;-67
2022/08/27 09:23:03;;;;;;;12.77;10.30;;;21.10;99.90;;;;;;5067387;28;20697;-66
2022/08/27 09:25:37;;;;;;;10.90;9.57;;;21.20;99.90;;;;;;5060787;28;20604;-66
2022/08/27 09:31:06;;;;;;;14.30;10.00;;;21.30;99.90;;;;;;5065822;28;20751;-65
2022/08/27 09:33:32;;;;;;;11.50;10.10;;;21.30;99.90;;;;;;5067755;28;20216;-65
2022/08/27 09:36:02;;;;;;;10.83;9.73;;;21.20;99.90;;;;;;5065174;28;20288;-67
2022/08/27 09:38:31;;;;;;;11.47;10.40;;;21.30;99.90;;;;;;5067656;28;20217;-63
2022/08/27 09:41:00;;;;;;;9.90;8.40;;;21.40;99.90;;;;;;5064700;28;20200;-63
2022/08/27 09:43:27;;;;;;;10.00;9.10;;;21.40;99.90;;;;;;5066947;28;20197;-65
2022/08/27 09:45:56;;;;;;;10.00;9.00;;;21.40;99.90;;;;;;5064261;28;20199;-65
2022/08/27 09:48:28;;;;;;;12.67;9.10;;;21.40;99.90;;;;;;5063391;28;20276;-65
2022/08/27 09:50:59;;;;;;;13.17;9.77;;;21.50;99.90;;;;;;5065083;28;20209;-65
2022/08/27 09:53:29;;;;;;;11.07;9.80;;;21.70;99.90;;;;;;5065663;28;20197;-63
2022/08/27 09:56:04;;;;;;;13.53;9.57;;;21.70;99.90;;;;;;5063922;28;20202;-64
2022/08/27 09:58:43;;;;;;;10.30;8.20;;;22.00;99.90;;;;;;5066040;28;20375;-64
2022/08/27 10:01:18;;;;;;;10.87;9.87;;;22.10;99.90;;;;;;5064741;28;20235;-64
2022/08/27 10:03:44;;;;;;;11.77;10.13;;;22.20;99.90;;;;;;5065326;28;20189;-65
2022/08/27 10:06:10;;;;;;;11.20;8.87;;;22.40;99.90;;;;;;5046577;28;20191;-66
2022/08/27 10:08:49;;;;;;;11.07;9.90;;;22.50;99.90;;;;;;5066892;28;20190;-69
2022/08/27 10:11:43;;;;;;;11.37;7.93;;;22.80;99.90;;;;;;5066129;28;20686;-65
2022/08/27 10:14:20;;;;;;;9.70;8.70;;;23.00;99.90;;;;;;5047916;28;20649;-64
2022/08/27 10:17:14;;;;;;;11.37;8.50;;;22.90;99.90;;;;;;5067479;28;20640;-66
2022/08/27 10:19:48;;;;;;;9.13;8.00;;;23.00;99.90;;;;;;5051614;28;20582;-66
2022/08/27 10:22:21;;;;;;;10.87;8.23;;;23.00;99.90;;;;;;5067484;28;20206;-66
2022/08/27 10:25:12;;;;;;;7.60;6.90;;;23.10;99.90;;;;;;5045274;28;20314;-66
2022/08/27 10:27:59;;;;;;;10.30;7.07;;;23.20;99.90;;;;;;5047332;28;20179;-67
2022/08/27 10:30:38;;;;;;;9.20;8.13;;;23.30;99.90;;;;;;5059901;28;20273;-66
2022/08/27 10:33:21;;;;;;;8.00;7.20;;;23.10;99.90;;;;;;5050106;28;20224;-64
2022/08/27 10:36:04;;;;;;;8.17;7.37;;;23.10;99.90;;;;;;5063573;28;20231;-66
2022/08/27 10:38:56;;;;;;;11.13;7.50;;;23.10;99.90;;;;;;5067770;28;20229;-66
2022/08/27 10:41:33;;;;;;;7.43;6.33;;;23.20;99.90;;;;;;5067881;28;20202;-65
2022/08/27 10:44:22;;;;;;;6.97;6.27;;;23.40;99.90;;;;;;5068617;28;20546;-65
2022/08/27 10:47:11;;;;;;;8.50;7.60;;;23.50;99.90;;;;;;5068749;28;20291;-65
2022/08/27 10:50:00;;;;;;;10.77;6.27;;;23.60;99.90;;;;;;5054302;28;20231;-64
2022/08/27 10:52:36;;;;;;;8.23;6.00;;;23.80;99.90;;;;;;5067975;28;20210;-64
2022/08/27 10:55:09;;;;;;;8.23;6.70;;;23.70;99.90;;;;;;5063035;28;20200;-65
2022/08/27 10:57:37;;;;;;;7.03;6.37;;;23.80;99.90;;;;;;5069127;28;20187;-65
2022/08/27 11:00:14;;;;;;;5.87;5.07;;;24.10;99.90;;;;;;5063482;28;20194;-64
2022/08/27 11:02:46;;;;;;;8.07;6.37;;;24.20;99.90;;;;;;5070029;28;20181;-63
2022/08/27 11:05:21;;;;;;;9.53;6.63;;;24.20;99.90;;;;;;5067100;28;20344;-64
2022/08/27 11:08:13;;;;;;;5.00;4.60;;;24.10;99.90;;;;;;5068530;28;20181;-64
2022/08/27 11:10:44;;;;;;;4.67;4.27;;;24.00;99.90;;;;;;5053429;28;20226;-64
2022/08/27 11:13:18;;;;;;;6.70;5.93;;;24.00;99.90;;;;;;5068645;28;20190;-63
2022/08/27 11:15:48;;;;;;;8.03;7.33;;;24.00;99.90;;;;;;5052348;28;20313;-64
2022/08/27 11:18:41;;;;;;;10.90;7.03;;;23.60;99.90;;;;;;5063820;28;20213;-65
2022/08/27 11:21:16;;;;;;;6.40;5.90;;;23.50;99.90;;;;;;5064899;28;20371;-63
2022/08/27 11:23:51;;;;;;;7.70;6.77;;;23.40;99.90;;;;;;5068776;28;20718;-63
2022/08/27 11:26:17;;;;;;;6.70;6.20;;;23.40;99.90;;;;;;5063404;28;20193;-64
2022/08/27 11:28:51;;;;;;;10.50;7.23;;;23.40;99.90;;;;;;5068586;28;20178;-66
2022/08/27 11:31:35;;;;;;;10.67;6.27;;;23.40;99.90;;;;;;5064153;28;20224;-66
2022/08/27 11:34:06;;;;;;;7.73;6.17;;;23.60;99.90;;;;;;5065913;28;20889;-66
2022/08/27 11:36:55;;;;;;;6.03;5.43;;;23.70;99.90;;;;;;5067261;28;20208;-65
2022/08/27 11:39:41;;;;;;;7.43;5.67;;;23.70;99.90;;;;;;5065466;28;20209;-65
2022/08/27 11:42:24;;;;;;;9.70;6.70;;;23.60;99.90;;;;;;5066131;28;20178;-71
2022/08/27 11:45:03;;;;;;;7.17;6.47;;;23.50;99.90;;;;;;5053317;28;20185;-65
2022/08/27 11:47:29;;;;;;;9.00;6.70;;;23.40;99.90;;;;;;5069566;28;20176;-64
2022/08/27 11:50:01;;;;;;;7.00;6.30;;;23.40;99.90;;;;;;5047746;28;20219;-64
2022/08/27 11:52:39;;;;;;;8.60;6.43;;;23.40;99.90;;;;;;5049279;28;20170;-64
2022/08/27 11:55:25;;;;;;;7.63;7.03;;;23.60;99.90;;;;;;5054715;28;20251;-64
2022/08/27 11:58:22;;;;;;;9.00;6.00;;;23.60;99.90;;;;;;5049248;28;20205;-64
2022/08/27 12:00:52;;;;;;;7.17;6.50;;;23.60;99.90;;;;;;5059945;28;20667;-64
2022/08/27 12:03:17;;;;;;;10.63;6.55;;;23.90;99.90;;;;;;5049116;28;20274;-64
2022/08/27 12:05:46;;;;;;;8.23;5.67;;;24.10;99.90;;;;;;5054077;28;20426;-64
2022/08/27 12:08:20;;;;;;;7.00;5.60;;;24.50;99.90;;;;;;5068522;28;20206;-64
2022/08/27 12:11:23;;;;;;;6.18;5.68;;;24.80;99.90;;;;;;5059441;28;20694;-65
2022/08/27 12:14:15;;;;;;;6.88;5.68;;;24.90;99.90;;;;;;5068540;28;20259;-65
2022/08/27 12:17:24;;;;;;;7.22;6.63;;;24.80;99.90;;;;;;5066070;28;20886;-65
2022/08/27 12:19:55;;;;;;;6.70;6.15;;;24.70;99.90;;;;;;5031651;28;20309;-63
2022/08/27 12:25:27;;;;;;;10.88;6.72;;;24.20;99.90;;;;;;5056125;28;20793;-64
2022/08/27 12:27:58;;;;;;;7.45;6.50;;;24.20;99.90;;;;;;5063327;28;20184;-65
2022/08/27 12:30:34;;;;;;;7.93;6.72;;;24.40;99.90;;;;;;5064487;28;20195;-65
2022/08/27 12:33:22;;;;;;;7.90;5.90;;;24.60;99.90;;;;;;5062636;28;20206;-66
2022/08/27 12:35:52;;;;;;;6.63;5.65;;;24.90;99.90;;;;;;5062870;28;20183;-65
2022/08/27 12:38:32;;;;;;;5.85;5.22;;;25.20;99.90;;;;;;5067720;28;20734;-64
2022/08/27 12:41:02;;;;;;;8.90;6.55;;;25.10;99.90;;;;;;5063275;28;20191;-65
2022/08/27 12:43:32;;;;;;;6.30;5.57;;;25.10;99.90;;;;;;5064604;28;20182;-65
2022/08/27 12:46:18;;;;;;;5.90;5.38;;;25.20;99.90;;;;;;5064997;28;20194;-65
2022/08/27 12:48:58;;;;;;;8.98;5.53;;;25.40;99.90;;;;;;5065239;28;20185;-72
2022/08/27 12:51:25;;;;;;;6.68;5.95;;;25.40;99.90;;;;;;5062812;28;20231;-76
2022/08/27 12:54:06;;;;;;;9.55;6.15;;;25.20;99.90;;;;;;5067227;28;20258;-64